Time;durP1;ratioP1;P1;durP2;ratioP2;P2;SDS_P1;SDS_P2;PMS_P1;PMS_P2;Temp;Humidity;BMP_temperature;BMP_pressure;BME280_temperature;BME280_humidity;BME280_pressure;Samples;Min_cycle;Max_cycle;Signal;HPM_P1;HPM_P2
2023/03/03 00:00:55;;;;;;;0.37;0.37;;;;;;;-1.41;100.00;100978.31;4954800;29;20248;-82
2023/03/03 00:03:23;;;;;;;1.30;0.83;;;;;;;-1.48;100.00;100974.03;4956091;28;20179;-78
2023/03/03 00:05:49;;;;;;;0.00;0.00;;;;;;;-1.43;100.00;100968.88;4955981;28;20722;-81
2023/03/03 00:08:17;;;;;;;0.00;0.00;;;;;;;-1.44;100.00;100965.38;4956102;28;20199;-78
2023/03/03 00:10:43;;;;;;;0.00;0.00;;;;;;;-1.28;100.00;100963.97;4955740;28;20477;-81
2023/03/03 00:13:16;;;;;;;0.00;0.00;;;;;;;-1.10;100.00;100953.28;4956240;28;20286;-78
2023/03/03 00:15:42;;;;;;;2.63;0.70;;;;;;;-1.10;100.00;100958.66;4956205;28;20206;-81
2023/03/03 00:18:32;;;;;;;1.00;1.00;;;;;;;-1.13;100.00;100955.59;4955728;29;20421;-82
2023/03/03 00:21:00;;;;;;;1.23;0.60;;;;;;;-1.05;100.00;100968.69;4955810;28;20453;-80
2023/03/03 00:23:30;;;;;;;0.00;0.00;;;;;;;-0.96;100.00;100967.38;4955791;28;20414;-82
2023/03/03 00:25:58;;;;;;;1.33;1.33;;;;;;;-0.86;100.00;100967.69;4955611;28;20167;-82
2023/03/03 00:28:46;;;;;;;0.00;0.00;;;;;;;-1.04;100.00;100971.16;4955705;28;20179;-81
2023/03/03 00:31:18;;;;;;;0.00;0.00;;;;;;;-1.09;100.00;100959.47;4955693;28;20269;-82
2023/03/03 00:33:49;;;;;;;0.30;0.30;;;;;;;-1.34;100.00;100970.22;4955521;28;20171;-82
2023/03/03 00:36:15;;;;;;;0.00;0.00;;;;;;;-1.34;100.00;100976.38;4954743;28;20163;-82
2023/03/03 00:38:41;;;;;;;0.00;0.00;;;;;;;-1.33;100.00;100980.69;4955114;28;20782;-82
2023/03/03 00:41:26;;;;;;;0.90;0.90;;;;;;;-1.41;100.00;100975.63;4954129;29;20170;-83
2023/03/03 00:43:52;;;;;;;0.00;0.00;;;;;;;-1.41;100.00;100978.31;4955437;28;20174;-82
2023/03/03 00:46:20;;;;;;;2.60;1.87;;;;;;;-1.50;100.00;100984.97;4955146;28;20432;-82
2023/03/03 00:48:46;;;;;;;0.90;0.90;;;;;;;-1.54;100.00;100997.19;4955164;28;20748;-81
2023/03/03 00:51:27;;;;;;;0.00;0.00;;;;;;;-1.36;100.00;100994.53;4955076;28;20178;-78
2023/03/03 00:53:53;;;;;;;0.57;0.57;;;;;;;-1.49;100.00;100991.97;4955363;28;20198;-82
2023/03/03 00:56:18;;;;;;;0.00;0.00;;;;;;;-1.48;100.00;100995.47;4955041;28;20186;-78
2023/03/03 00:58:45;;;;;;;0.27;0.27;;;;;;;-1.55;100.00;100998.22;4955135;28;20535;-78
2023/03/03 01:01:10;;;;;;;0.40;0.40;;;;;;;-1.53;100.00;100996.13;4955141;28;20175;-82
2023/03/03 01:03:35;;;;;;;0.00;0.00;;;;;;;-1.48;100.00;100998.16;4954895;28;21087;-76
2023/03/03 01:06:01;;;;;;;2.77;0.97;;;;;;;-1.47;100.00;100997.94;4954798;28;20182;-79
2023/03/03 01:08:26;;;;;;;0.00;0.00;;;;;;;-1.33;100.00;100999.47;4954797;28;20175;-81
2023/03/03 01:10:54;;;;;;;0.00;0.00;;;;;;;-1.35;100.00;101001.53;4954857;28;20210;-82
2023/03/03 01:13:25;;;;;;;2.53;0.43;;;;;;;-1.34;100.00;100997.81;4954881;28;20265;-83
2023/03/03 01:15:50;;;;;;;0.00;0.00;;;;;;;-1.30;100.00;101001.72;4954638;28;20771;-79
2023/03/03 01:18:16;;;;;;;0.00;0.00;;;;;;;-1.41;100.00;101001.63;4955010;28;20430;-81
2023/03/03 01:20:41;;;;;;;0.47;0.47;;;;;;;-1.42;100.00;101000.78;4954896;28;20683;-76
2023/03/03 01:23:06;;;;;;;3.60;1.50;;;;;;;-1.44;100.00;101008.22;4954682;28;20179;-82
2023/03/03 01:25:32;;;;;;;0.33;0.33;;;;;;;-1.41;100.00;100997.06;4954788;28;20620;-80
2023/03/03 01:27:58;;;;;;;1.90;1.80;;;;;;;-1.52;100.00;100998.59;4954547;28;20733;-81
2023/03/03 01:30:23;;;;;;;6.80;3.77;;;;;;;-1.64;100.00;101012.91;4954270;28;20210;-82
2023/03/03 01:32:49;;;;;;;0.50;0.50;;;;;;;-1.58;100.00;101001.34;4955041;28;20174;-80
2023/03/03 01:35:14;;;;;;;1.23;1.03;;;;;;;-1.56;100.00;100996.56;4954750;28;20253;-73
2023/03/03 01:37:40;;;;;;;0.00;0.00;;;;;;;-1.32;100.00;101000.28;4954311;28;20233;-82
2023/03/03 01:40:11;;;;;;;0.50;0.50;;;;;;;-1.54;100.00;101007.88;4954461;28;20175;-83
2023/03/03 01:42:36;;;;;;;0.47;0.47;;;;;;;-1.49;100.00;101010.72;4954359;28;20224;-82
2023/03/03 01:45:21;;;;;;;1.23;1.23;;;;;;;-1.45;100.00;101013.78;4954229;28;20854;-76
2023/03/03 01:48:09;;;;;;;0.07;0.07;;;;;;;-1.54;100.00;101011.38;4954016;28;20646;-82
2023/03/03 01:51:12;;;;;;;0.43;0.40;;;;;;;-1.53;100.00;101004.19;4954160;28;20293;-84
2023/03/03 01:53:43;;;;;;;0.83;0.60;;;;;;;-1.55;100.00;101008.94;4931740;28;20666;-83
2023/03/03 01:56:09;;;;;;;0.70;0.70;;;;;;;-1.64;100.00;101007.53;4953901;28;20187;-83
2023/03/03 01:58:40;;;;;;;0.00;0.00;;;;;;;-1.71;100.00;100994.22;4954052;28;20193;-83
2023/03/03 02:01:14;;;;;;;1.03;0.77;;;;;;;-1.69;100.00;101007.38;4953964;28;20414;-83
2023/03/03 02:03:42;;;;;;;0.00;0.00;;;;;;;-1.69;100.00;101004.72;4953881;28;20780;-80
2023/03/03 02:06:12;;;;;;;0.07;0.07;;;;;;;-1.76;100.00;101019.97;4953771;28;20434;-83
2023/03/03 02:08:58;;;;;;;1.80;1.00;;;;;;;-1.73;100.00;101024.94;4953404;29;20449;-83
2023/03/03 02:11:25;;;;;;;4.90;2.63;;;;;;;-1.72;100.00;101027.41;4953668;28;20422;-79
2023/03/03 02:13:51;;;;;;;1.70;1.40;;;;;;;-1.64;100.00;101034.34;4953692;28;20441;-83
2023/03/03 02:16:16;;;;;;;2.80;2.10;;;;;;;-1.70;100.00;101021.81;4953550;28;20921;-83
2023/03/03 02:18:41;;;;;;;0.63;0.63;;;;;;;-1.64;100.00;101026.28;4953584;28;20192;-82
2023/03/03 02:21:28;;;;;;;4.07;3.03;;;;;;;-1.73;100.00;101024.94;4953561;28;20237;-78
2023/03/03 02:24:13;;;;;;;0.27;0.27;;;;;;;-1.69;100.00;101026.97;4953837;28;20558;-83
2023/03/03 02:26:40;;;;;;;0.83;0.83;;;;;;;-1.65;100.00;101019.31;4953446;28;20438;-80
2023/03/03 02:29:06;;;;;;;0.00;0.00;;;;;;;-1.62;100.00;101014.31;4953276;28;20466;-79
2023/03/03 02:31:32;;;;;;;0.00;0.00;;;;;;;-1.61;100.00;101023.19;4953492;28;20418;-80
2023/03/03 02:33:57;;;;;;;0.00;0.00;;;;;;;-1.60;100.00;101012.25;4953374;28;20432;-77
2023/03/03 02:36:26;;;;;;;0.57;0.57;;;;;;;-1.62;100.00;101018.88;4953139;28;20230;-79
2023/03/03 02:39:00;;;;;;;0.00;0.00;;;;;;;-1.53;100.00;101018.38;4953287;28;20567;-82
2023/03/03 02:41:52;;;;;;;0.00;0.00;;;;;;;-1.58;100.00;101002.16;4953200;28;20754;-84
2023/03/03 02:44:22;;;;;;;0.00;0.00;;;;;;;-1.33;100.00;100995.97;4953325;28;20422;-80
2023/03/03 02:46:50;;;;;;;0.97;0.97;;;;;;;-1.57;100.00;101008.34;4953096;28;20751;-81
2023/03/03 02:49:18;;;;;;;0.10;0.10;;;;;;;-1.73;100.00;101014.22;4953093;28;20458;-83
2023/03/03 02:51:43;;;;;;;0.00;0.00;;;;;;;-1.73;100.00;101019.56;4953081;28;20418;-80
2023/03/03 02:54:11;;;;;;;0.00;0.00;;;;;;;-1.51;100.00;101021.66;4953083;28;20473;-81
2023/03/03 02:56:37;;;;;;;0.00;0.00;;;;;;;-1.55;100.00;101027.69;4951661;28;20179;-81
2023/03/03 02:59:03;;;;;;;0.50;0.50;;;;;;;-1.55;100.00;101025.00;4952760;28;20493;-81
2023/03/03 03:01:30;;;;;;;0.33;0.33;;;;;;;-1.59;100.00;101023.78;4952586;28;20182;-84
2023/03/03 03:03:56;;;;;;;0.23;0.23;;;;;;;-1.65;100.00;101025.47;4953441;28;20429;-71
2023/03/03 03:06:22;;;;;;;0.20;0.20;;;;;;;-1.66;100.00;101028.38;4953351;28;20411;-71
2023/03/03 03:08:47;;;;;;;0.00;0.00;;;;;;;-1.58;100.00;101026.25;4955315;28;20226;-70
2023/03/03 03:11:12;;;;;;;0.53;0.53;;;;;;;-1.48;100.00;101028.44;4954173;28;20193;-70
2023/03/03 03:13:37;;;;;;;6.53;5.03;;;;;;;-1.34;100.00;101032.66;4953150;28;20187;-71
2023/03/03 03:16:03;;;;;;;0.93;0.63;;;;;;;-1.36;100.00;101031.25;4952908;28;20185;-70
2023/03/03 03:18:28;;;;;;;0.20;0.20;;;;;;;-1.27;100.00;101030.75;4952889;28;20241;-70
2023/03/03 03:20:54;;;;;;;0.00;0.00;;;;;;;-1.33;100.00;101028.94;4952843;28;20179;-70
2023/03/03 03:23:22;;;;;;;2.23;2.13;;;;;;;-1.32;100.00;101032.44;4952717;28;20635;-74
2023/03/03 03:25:48;;;;;;;1.33;1.27;;;;;;;-1.35;100.00;101030.22;4952629;28;20183;-71
2023/03/03 03:28:15;;;;;;;0.00;0.00;;;;;;;-1.38;100.00;101036.00;4952916;28;20237;-70
2023/03/03 03:30:41;;;;;;;0.20;0.20;;;;;;;-1.30;100.00;101049.97;4952628;28;20206;-71
2023/03/03 03:33:07;;;;;;;0.00;0.00;;;;;;;-1.21;100.00;101045.16;4952605;28;20438;-70
2023/03/03 03:35:33;;;;;;;0.00;0.00;;;;;;;-1.20;100.00;101046.78;4952562;28;20252;-70
2023/03/03 03:37:59;;;;;;;0.00;0.00;;;;;;;-1.22;100.00;101047.00;4952516;28;20194;-70
2023/03/03 03:40:25;;;;;;;0.40;0.40;;;;;;;-1.52;100.00;101057.53;4952604;28;20325;-70
2023/03/03 03:42:51;;;;;;;18.67;3.70;;;;;;;-1.92;100.00;101073.00;4952687;28;20179;-70
2023/03/03 03:45:17;;;;;;;0.00;0.00;;;;;;;-1.87;100.00;101075.88;4952558;28;20467;-74
2023/03/03 03:47:42;;;;;;;0.00;0.00;;;;;;;-1.83;100.00;101074.41;4952485;28;20205;-71
2023/03/03 03:50:08;;;;;;;0.00;0.00;;;;;;;-1.64;100.00;101079.88;4952399;28;20283;-70
2023/03/03 03:52:34;;;;;;;0.00;0.00;;;;;;;-1.43;100.00;101070.69;4952367;28;20185;-70
2023/03/03 03:55:00;;;;;;;0.00;0.00;;;;;;;-1.32;100.00;101056.56;4952446;28;20179;-72
2023/03/03 03:57:25;;;;;;;0.37;0.30;;;;;;;-1.56;100.00;101075.09;4952538;28;20181;-71
2023/03/03 03:59:50;;;;;;;0.00;0.00;;;;;;;-1.57;100.00;101075.31;4952382;28;20266;-71
2023/03/03 04:02:16;;;;;;;0.30;0.30;;;;;;;-1.74;100.00;101068.78;4952414;28;20233;-70
2023/03/03 04:04:41;;;;;;;0.00;0.00;;;;;;;-1.73;100.00;101076.63;4952345;28;20186;-71
2023/03/03 04:07:06;;;;;;;0.00;0.00;;;;;;;-1.54;100.00;101078.38;4952183;28;20269;-71
2023/03/03 04:09:32;;;;;;;0.00;0.00;;;;;;;-1.25;100.00;101081.47;4952245;28;20221;-71
2023/03/03 04:11:57;;;;;;;0.00;0.00;;;;;;;-1.12;100.00;101088.59;4954661;28;20211;-71
2023/03/03 04:14:22;;;;;;;0.00;0.00;;;;;;;-1.00;100.00;101100.25;4956060;28;20206;-71
2023/03/03 04:16:48;;;;;;;0.00;0.00;;;;;;;-1.34;100.00;101107.69;4955844;28;20605;-72
2023/03/03 04:19:13;;;;;;;0.50;0.50;;;;;;;-1.40;100.00;101121.97;4955697;28;20175;-70
2023/03/03 04:21:38;;;;;;;0.00;0.00;;;;;;;-1.55;100.00;101119.59;4956015;28;20190;-70
2023/03/03 04:24:04;;;;;;;2.03;1.93;;;;;;;-1.72;100.00;101121.13;4954452;28;20190;-70
2023/03/03 04:26:30;;;;;;;0.40;0.40;;;;;;;-1.77;100.00;101114.75;4955580;28;20287;-70
2023/03/03 04:28:57;;;;;;;0.00;0.00;;;;;;;-1.70;100.00;101120.91;4955579;28;20645;-70
2023/03/03 04:31:24;;;;;;;0.00;0.00;;;;;;;-1.60;100.00;101126.63;4955620;28;20418;-71
2023/03/03 04:33:50;;;;;;;0.00;0.00;;;;;;;-1.53;100.00;101124.75;4955473;28;20841;-71
2023/03/03 04:36:15;;;;;;;0.00;0.00;;;;;;;-1.66;100.00;101122.94;4955466;28;20430;-74
2023/03/03 04:38:40;;;;;;;0.00;0.00;;;;;;;-1.50;100.00;101126.97;4955605;28;20212;-71
2023/03/03 04:41:05;;;;;;;0.00;0.00;;;;;;;-1.57;100.00;101121.66;4955415;28;20214;-72
2023/03/03 04:43:31;;;;;;;0.00;0.00;;;;;;;-1.48;100.00;101129.44;4955544;28;20626;-71
2023/03/03 04:45:56;;;;;;;0.00;0.00;;;;;;;-1.55;100.00;101129.50;4955301;28;20185;-71
2023/03/03 04:48:21;;;;;;;4.63;4.53;;;;;;;-1.54;100.00;101133.81;4955341;28;20704;-71
2023/03/03 04:50:47;;;;;;;0.00;0.00;;;;;;;-1.53;100.00;101135.44;4955207;28;20563;-70
2023/03/03 04:53:12;;;;;;;0.03;0.03;;;;;;;-1.27;100.00;101132.63;4955270;28;20197;-71
2023/03/03 04:55:37;;;;;;;0.00;0.00;;;;;;;-1.20;100.00;101128.03;4955329;28;20269;-70
2023/03/03 04:58:04;;;;;;;0.00;0.00;;;;;;;-1.03;100.00;101125.63;4955179;28;20217;-71
2023/03/03 05:00:29;;;;;;;0.00;0.00;;;;;;;-1.01;100.00;101131.63;4955115;28;20224;-70
2023/03/03 05:02:54;;;;;;;0.00;0.00;;;;;;;-0.80;100.00;101138.44;4955124;28;20515;-71
2023/03/03 05:05:20;;;;;;;0.00;0.00;;;;;;;-1.15;100.00;101135.44;4954975;28;20290;-71
2023/03/03 05:07:45;;;;;;;0.00;0.00;;;;;;;-1.17;100.00;101129.44;4954995;28;20179;-70
2023/03/03 05:10:11;;;;;;;0.00;0.00;;;;;;;-1.30;100.00;101135.75;4954737;28;20260;-71
2023/03/03 05:12:36;;;;;;;0.00;0.00;;;;;;;-1.21;100.00;101145.16;4954846;28;20175;-71
2023/03/03 05:15:02;;;;;;;0.00;0.00;;;;;;;-1.26;100.00;101152.19;4954912;28;20178;-70
2023/03/03 05:17:27;;;;;;;0.00;0.00;;;;;;;-1.26;100.00;101150.34;4954741;28;20758;-70
2023/03/03 05:19:55;;;;;;;0.10;0.10;;;;;;;-1.28;100.00;101148.91;4954650;28;20225;-70
2023/03/03 05:22:20;;;;;;;0.63;0.63;;;;;;;-1.31;100.00;101157.38;4954348;28;20237;-71
2023/03/03 05:24:48;;;;;;;0.00;0.00;;;;;;;-1.35;100.00;101145.44;4954512;28;20186;-71
2023/03/03 05:27:13;;;;;;;1.17;1.13;;;;;;;-1.08;100.00;101141.56;4954661;28;20179;-71
2023/03/03 05:29:39;;;;;;;0.00;0.00;;;;;;;-0.90;100.00;101138.94;4954504;28;21047;-77
2023/03/03 05:32:04;;;;;;;1.13;1.13;;;;;;;-0.74;100.00;101139.41;4954400;28;20730;-71
2023/03/03 05:34:29;;;;;;;0.20;0.20;;;;;;;-0.67;100.00;101145.56;4954555;28;20190;-71
2023/03/03 05:36:55;;;;;;;0.00;0.00;;;;;;;-0.63;100.00;101147.56;4954348;28;20179;-71
2023/03/03 05:39:20;;;;;;;1.23;1.23;;;;;;;-0.63;100.00;101138.72;4954380;28;20265;-70
2023/03/03 05:41:45;;;;;;;0.00;0.00;;;;;;;-0.70;100.00;101132.59;4954426;29;20189;-71
2023/03/03 05:44:11;;;;;;;2.33;2.23;;;;;;;-0.78;100.00;101131.00;4953033;28;20634;-71
2023/03/03 05:46:36;;;;;;;1.80;1.80;;;;;;;-0.80;100.00;101129.59;4954212;28;20260;-73
2023/03/03 05:49:01;;;;;;;11.10;2.70;;;;;;;-0.88;100.00;101125.28;4954196;28;20174;-70
2023/03/03 05:51:27;;;;;;;0.00;0.00;;;;;;;-0.84;100.00;101133.75;4954193;28;20183;-70
2023/03/03 05:53:52;;;;;;;0.77;0.77;;;;;;;-0.81;100.00;101139.50;4954120;28;20183;-70
2023/03/03 05:56:17;;;;;;;0.23;0.23;;;;;;;-0.73;100.00;101139.19;4954089;28;20186;-75
2023/03/03 05:58:43;;;;;;;2.30;2.20;;;;;;;-0.72;100.00;101140.88;4954130;28;20682;-71
2023/03/03 06:01:08;;;;;;;1.10;1.10;;;;;;;-0.76;100.00;101138.81;4954050;28;20175;-75
2023/03/03 06:03:34;;;;;;;1.50;1.50;;;;;;;-0.75;100.00;101137.78;4953738;28;20179;-74
2023/03/03 06:05:59;;;;;;;0.13;0.13;;;;;;;-0.78;100.00;101149.78;4953831;28;20186;-70
2023/03/03 06:08:24;;;;;;;0.00;0.00;;;;;;;-0.76;100.00;101163.78;4953927;28;20185;-71
2023/03/03 06:10:50;;;;;;;0.00;0.00;;;;;;;-0.69;100.00;101155.69;4953583;28;20338;-71
2023/03/03 06:13:15;;;;;;;0.40;0.40;;;;;;;-0.63;100.00;101162.84;4953790;28;20257;-78
2023/03/03 06:15:40;;;;;;;1.70;1.70;;;;;;;-0.78;100.00;101175.78;4953557;28;20183;-71
2023/03/03 06:18:06;;;;;;;0.00;0.00;;;;;;;-0.83;100.00;101187.19;4953490;28;20520;-74
2023/03/03 06:20:32;;;;;;;0.03;0.03;;;;;;;-0.63;100.00;101187.00;4953870;28;20210;-71
2023/03/03 06:22:57;;;;;;;0.00;0.00;;;;;;;-0.45;100.00;101199.66;4953621;28;20674;-71
2023/03/03 06:25:22;;;;;;;0.10;0.10;;;;;;;-0.28;100.00;101200.75;4953776;28;20263;-72
2023/03/03 06:27:48;;;;;;;0.00;0.00;;;;;;;-0.46;100.00;101203.38;4953384;28;20179;-71
2023/03/03 06:30:13;;;;;;;1.30;1.30;;;;;;;-0.69;100.00;101209.34;4952200;28;20202;-71
2023/03/03 06:32:39;;;;;;;0.00;0.00;;;;;;;-0.55;100.00;101212.75;4953391;28;20178;-71
2023/03/03 06:35:05;;;;;;;0.00;0.00;;;;;;;-0.63;100.00;101220.03;4952546;28;20171;-71
2023/03/03 06:37:30;;;;;;;0.00;0.00;;;;;;;-0.87;100.00;101218.13;4953553;28;20178;-71
2023/03/03 06:39:55;;;;;;;0.87;0.87;;;;;;;-0.83;100.00;101215.88;4951940;28;20669;-71
2023/03/03 06:42:23;;;;;;;0.00;0.00;;;;;;;-0.72;100.00;101215.16;4968160;28;20201;-76
2023/03/03 06:44:49;;;;;;;0.00;0.00;;;;;;;-0.50;100.00;101212.91;4972391;28;20170;-77
2023/03/03 06:47:14;;;;;;;0.00;0.00;;;;;;;-0.60;100.00;101216.91;4972251;28;20534;-72
2023/03/03 06:49:39;;;;;;;0.00;0.00;;;;;;;-0.37;100.00;101219.00;4971085;28;20197;-73
2023/03/03 06:52:12;;;;;;;0.63;0.63;;;;;;;-0.26;100.00;101212.09;4972431;28;20544;-71
2023/03/03 06:54:38;;;;;;;0.00;0.00;;;;;;;-0.40;100.00;101229.34;4972380;28;20645;-71
2023/03/03 06:57:15;;;;;;;0.00;0.00;;;;;;;-0.44;100.00;101220.91;4972370;28;20178;-71
2023/03/03 06:59:41;;;;;;;0.00;0.00;;;;;;;-0.57;100.00;101234.44;4972349;28;20691;-71
2023/03/03 07:02:17;;;;;;;0.10;0.10;;;;;;;-0.31;100.00;101231.53;4972354;28;20178;-73
2023/03/03 07:04:42;;;;;;;0.40;0.40;;;;;;;-0.18;100.00;101221.72;4972339;28;20181;-74
2023/03/03 07:07:19;;;;;;;0.00;0.00;;;;;;;-0.08;100.00;101230.09;4970844;28;20182;-72
2023/03/03 07:09:46;;;;;;;3.80;1.77;;;;;;;-0.02;100.00;101231.88;4972158;28;20669;-71
2023/03/03 07:12:15;;;;;;;0.50;0.50;;;;;;;-0.04;100.00;101239.34;4972537;28;20178;-72
2023/03/03 07:14:49;;;;;;;0.00;0.00;;;;;;;-0.06;100.00;101247.63;4972140;28;20189;-76
2023/03/03 07:17:17;;;;;;;0.00;0.00;;;;;;;-0.08;100.00;101246.19;4972083;28;20169;-73
2023/03/03 07:19:44;;;;;;;0.90;0.90;;;;;;;-0.04;100.00;101245.53;4971979;28;20267;-71
2023/03/03 07:22:23;;;;;;;8.50;1.83;;;;;;;-0.21;100.00;101246.31;4972055;28;20182;-72
2023/03/03 07:24:52;;;;;;;0.93;0.50;;;;;;;-0.25;100.00;101259.38;4972359;28;20189;-74
2023/03/03 07:27:25;;;;;;;3.50;2.20;;;;;;;-0.26;100.00;101259.59;4971898;28;20541;-71
2023/03/03 07:30:16;;;;;;;0.00;0.00;;;;;;;-0.26;100.00;101263.09;4971930;28;20205;-71
2023/03/03 07:32:44;;;;;;;6.17;1.73;;;;;;;-0.21;100.00;101265.13;4971953;28;20253;-71
2023/03/03 07:35:28;;;;;;;1.50;1.50;;;;;;;-0.15;100.00;101274.97;4971770;28;20188;-71
2023/03/03 07:37:53;;;;;;;0.20;0.20;;;;;;;-0.13;100.00;101272.91;4971693;28;20181;-79
2023/03/03 07:40:31;;;;;;;4.03;3.83;;;;;;;-0.15;100.00;101280.34;4956993;28;20178;-72
2023/03/03 07:42:56;;;;;;;0.00;0.00;;;;;;;-0.16;100.00;101278.69;4952536;28;20527;-78
2023/03/03 07:45:27;;;;;;;0.00;0.00;;;;;;;-0.16;100.00;101286.75;4951332;28;20277;-72
2023/03/03 07:48:00;;;;;;;0.00;0.00;;;;;;;-0.10;100.00;101285.91;4956362;28;20182;-72
2023/03/03 07:50:25;;;;;;;9.93;5.07;;;;;;;-0.23;100.00;101286.00;4956322;28;20206;-73
2023/03/03 07:52:57;;;;;;;16.57;7.03;;;;;;;-0.31;100.00;101287.91;4956379;28;20440;-75
2023/03/03 07:55:25;;;;;;;1.43;1.43;;;;;;;-0.35;100.00;101285.88;4956237;28;20635;-72
2023/03/03 07:57:53;;;;;;;0.00;0.00;;;;;;;-0.28;100.00;101294.72;4956235;28;20456;-70
2023/03/03 08:00:21;;;;;;;0.67;0.67;;;;;;;-0.24;100.00;101292.41;4955997;28;20266;-71
2023/03/03 08:03:01;;;;;;;4.13;3.17;;;;;;;-0.21;100.00;101298.16;4956172;29;20238;-75
2023/03/03 08:05:41;;;;;;;0.00;0.00;;;;;;;-0.11;100.00;101303.88;4956119;28;20269;-75
2023/03/03 08:08:30;;;;;;;0.00;0.00;;;;;;;-0.10;100.00;101300.13;4954776;28;20773;-76
2023/03/03 08:10:58;;;;;;;0.67;0.67;;;;;;;-0.08;100.00;101297.22;4955990;28;20206;-75
2023/03/03 08:13:40;;;;;;;2.23;2.13;;;;;;;-0.15;100.00;101296.44;4955956;28;20190;-70
2023/03/03 08:16:08;;;;;;;5.40;5.00;;;;;;;-0.25;100.00;101298.81;4956148;28;20497;-74
2023/03/03 08:18:38;;;;;;;0.30;0.30;;;;;;;-0.27;100.00;101304.41;4955871;28;20202;-72
2023/03/03 08:21:04;;;;;;;8.50;3.60;;;;;;;-0.33;100.00;101307.97;4955909;28;20554;-76
2023/03/03 08:23:29;;;;;;;6.83;4.87;;;;;;;-0.36;100.00;101303.84;4955937;28;20422;-77
2023/03/03 08:25:54;;;;;;;2.60;1.90;;;;;;;-0.36;100.00;101311.09;4955721;28;20175;-73
2023/03/03 08:28:21;;;;;;;16.13;10.83;;;;;;;-0.40;100.00;101312.56;4956286;28;20178;-73
2023/03/03 08:30:46;;;;;;;15.67;6.33;;;;;;;-0.42;100.00;101307.41;4955539;28;20218;-74
2023/03/03 08:33:13;;;;;;;10.70;6.20;;;;;;;-0.39;100.00;101303.47;4956023;28;20433;-71
2023/03/03 08:35:39;;;;;;;3.87;2.57;;;;;;;-0.33;100.00;101310.63;4955715;28;20238;-75
2023/03/03 08:38:05;;;;;;;10.37;5.83;;;;;;;-0.31;100.00;101306.69;4955677;28;20186;-79
2023/03/03 08:40:31;;;;;;;7.10;5.80;;;;;;;-0.30;100.00;101304.81;4955548;28;20697;-71
2023/03/03 08:42:57;;;;;;;1.60;1.50;;;;;;;-0.24;100.00;101308.53;4955808;28;20501;-79
2023/03/03 08:45:23;;;;;;;8.17;7.37;;;;;;;-0.21;100.00;101308.06;4955383;28;20178;-77
2023/03/03 08:47:48;;;;;;;3.37;3.00;;;;;;;-0.25;100.00;101313.06;4955366;28;20202;-81
2023/03/03 08:50:15;;;;;;;9.07;6.23;;;;;;;-0.21;100.00;101308.06;4955294;28;21137;-79
2023/03/03 08:52:40;;;;;;;3.10;2.67;;;;;;;-0.20;100.00;101304.34;4955284;28;20179;-84
2023/03/03 08:55:06;;;;;;;0.30;0.30;;;;;;;-0.15;100.00;101309.88;4955158;28;20458;-79
2023/03/03 08:57:31;;;;;;;0.00;0.00;;;;;;;-0.04;100.00;101307.31;4954268;28;20255;-76
2023/03/03 08:59:57;;;;;;;0.00;0.00;;;;;;;0.09;100.00;101311.75;4955198;28;20229;-74
2023/03/03 09:02:22;;;;;;;0.67;0.67;;;;;;;0.19;100.00;101308.56;4955149;28;20242;-79
2023/03/03 09:04:47;;;;;;;0.00;0.00;;;;;;;0.23;100.00;101315.13;4955003;28;20181;-71
2023/03/03 09:07:13;;;;;;;2.00;1.90;;;;;;;0.21;100.00;101311.84;4954802;28;20238;-80
2023/03/03 09:09:38;;;;;;;2.10;2.00;;;;;;;0.17;100.00;101316.84;4954893;28;20220;-71
2023/03/03 09:12:16;;;;;;;0.10;0.10;;;;;;;0.20;100.00;101313.72;4955114;28;20179;-73
2023/03/03 09:14:41;;;;;;;2.70;2.53;;;;;;;0.19;100.00;101319.31;4954953;28;20158;-73
2023/03/03 09:17:24;;;;;;;1.40;1.40;;;;;;;0.25;100.00;101310.34;4954808;28;20182;-74
2023/03/03 09:19:49;;;;;;;3.40;1.27;;;;;;;0.29;100.00;101307.03;4954791;28;20171;-74
2023/03/03 09:22:20;;;;;;;0.17;0.17;;;;;;;0.35;100.00;101312.53;4954899;28;20177;-72
2023/03/03 09:24:47;;;;;;;2.63;2.50;;;;;;;0.26;100.00;101315.50;4954766;28;20174;-75
2023/03/03 09:27:28;;;;;;;0.20;0.17;;;;;;;0.31;100.00;101322.09;4955089;28;20170;-74
2023/03/03 09:29:53;;;;;;;0.67;0.67;;;;;;;0.23;100.00;101315.94;4954579;28;20206;-72
2023/03/03 09:32:38;;;;;;;2.53;1.60;;;;;;;0.26;100.00;101314.69;4954634;28;20265;-74
2023/03/03 09:35:28;;;;;;;9.07;5.53;;;;;;;0.21;100.00;101309.97;4954602;28;20243;-77
2023/03/03 09:37:53;;;;;;;4.00;3.70;;;;;;;0.17;100.00;101318.72;4954512;28;20226;-76
2023/03/03 09:40:44;;;;;;;8.43;3.73;;;;;;;0.17;100.00;101316.03;4954630;28;20182;-78
2023/03/03 09:43:22;;;;;;;13.70;5.43;;;;;;;0.21;100.00;101317.22;4954528;28;20194;-76
2023/03/03 09:46:23;;;;;;;4.27;3.40;;;;;;;0.24;100.00;101314.91;4954485;28;20181;-84
2023/03/03 09:49:13;;;;;;;3.23;1.73;;;;;;;0.33;100.00;101320.00;4952181;29;20186;-78
2023/03/03 09:51:58;;;;;;;10.00;5.77;;;;;;;0.28;100.00;101320.66;4954356;28;20419;-76
2023/03/03 09:54:55;;;;;;;11.77;7.27;;;;;;;0.28;100.00;101321.47;4954332;28;20182;-76
2023/03/03 09:57:51;;;;;;;1.97;1.77;;;;;;;0.40;100.00;101318.88;4954091;28;20450;-75
2023/03/03 10:00:41;;;;;;;8.07;3.67;;;;;;;0.43;100.00;101321.13;4954060;28;20170;-76
2023/03/03 10:03:28;;;;;;;10.27;3.10;;;;;;;0.44;100.00;101328.16;4954028;28;20242;-75
2023/03/03 10:06:14;;;;;;;3.30;2.77;;;;;;;0.46;100.00;101334.13;4953946;28;20197;-72
2023/03/03 10:09:37;;;;;;;1.23;1.13;;;;;;;0.48;100.00;101326.66;4953855;28;20178;-71
2023/03/03 10:12:36;;;;;;;9.30;4.93;;;;;;;0.55;100.00;101326.56;4913283;29;20191;-70
2023/03/03 10:15:08;;;;;;;1.93;1.83;;;;;;;0.64;100.00;101321.75;4912932;29;20195;-74
2023/03/03 10:17:41;;;;;;;8.00;5.37;;;;;;;0.66;100.00;101331.22;4947332;28;20221;-74
2023/03/03 10:20:35;;;;;;;7.57;5.53;;;;;;;0.59;100.00;101331.31;4953670;28;20181;-73
2023/03/03 10:23:19;;;;;;;0.63;0.53;;;;;;;0.70;100.00;101335.09;4953551;28;20234;-76
2023/03/03 10:25:51;;;;;;;1.17;1.17;;;;;;;0.90;100.00;101332.19;4952889;28;20234;-74
2023/03/03 10:28:28;;;;;;;9.83;2.57;;;;;;;1.03;100.00;101329.34;4953573;28;20186;-73
2023/03/03 10:31:06;;;;;;;5.10;1.07;;;;;;;0.91;100.00;101330.31;4952946;28;20220;-72
2023/03/03 10:33:43;;;;;;;6.00;4.40;;;;;;;0.95;100.00;101337.72;4953239;28;20179;-76
2023/03/03 10:36:08;;;;;;;7.03;6.60;;;;;;;0.93;100.00;101347.06;4952809;28;20174;-74
2023/03/03 10:38:54;;;;;;;11.03;8.63;;;;;;;0.82;100.00;101345.94;4952781;28;20198;-76
2023/03/03 10:41:58;;;;;;;13.00;7.63;;;;;;;0.89;100.00;101352.91;4953040;28;20653;-75
2023/03/03 10:44:45;;;;;;;1.43;1.33;;;;;;;0.98;100.00;101345.31;4932137;28;20277;-76
2023/03/03 10:47:41;;;;;;;2.87;2.33;;;;;;;1.08;100.00;101356.38;4952698;28;20181;-77
2023/03/03 10:50:23;;;;;;;5.93;1.27;;;;;;;1.13;100.00;101348.44;4952838;28;20331;-77
2023/03/03 10:53:14;;;;;;;7.73;3.23;;;;;;;1.16;100.00;101352.56;4952781;28;20541;-76
2023/03/03 10:55:53;;;;;;;4.70;4.40;;;;;;;1.17;100.00;101354.22;4953024;28;20217;-75
2023/03/03 10:58:34;;;;;;;2.37;2.27;;;;;;;1.11;100.00;101350.53;4953046;28;20182;-77
2023/03/03 11:01:13;;;;;;;13.00;6.93;;;;;;;1.11;100.00;101349.72;4953718;28;20179;-71
2023/03/03 11:04:03;;;;;;;1.93;1.80;;;;;;;1.09;100.00;101349.13;4952572;28;20646;-72
2023/03/03 11:07:00;;;;;;;15.33;5.50;;;;;;;1.23;100.00;101353.28;4952310;28;20186;-71
2023/03/03 11:09:31;;;;;;;5.87;5.33;;;;;;;1.30;100.00;101350.50;4952278;28;20210;-71
2023/03/03 11:12:08;;;;;;;8.07;7.30;;;;;;;1.30;100.00;101345.97;4952420;28;20177;-71
2023/03/03 11:15:02;;;;;;;1.80;1.70;;;;;;;1.31;100.00;101339.53;4952462;28;20206;-70
2023/03/03 11:17:50;;;;;;;3.03;2.87;;;;;;;1.39;100.00;101346.47;4952418;28;20300;-70
2023/03/03 11:20:28;;;;;;;0.00;0.00;;;;;;;1.43;100.00;101339.56;4952462;28;20171;-71
2023/03/03 11:22:58;;;;;;;0.00;0.00;;;;;;;1.52;100.00;101334.69;4952598;28;20226;-77
2023/03/03 11:25:40;;;;;;;5.83;5.30;;;;;;;1.46;100.00;101334.56;4952602;28;20625;-77
2023/03/03 11:28:24;;;;;;;1.60;1.30;;;;;;;1.49;100.00;101338.66;4953598;28;20261;-76
2023/03/03 11:31:19;;;;;;;10.63;4.63;;;;;;;1.51;100.00;101338.44;4951888;28;20217;-76
2023/03/03 11:34:23;;;;;;;3.47;3.20;;;;;;;1.49;100.00;101339.47;4934138;28;20290;-76
2023/03/03 11:36:54;;;;;;;4.40;2.27;;;;;;;1.53;100.00;101345.22;4951199;29;20671;-79